createdAt,value
2018-12-10T00:01:14.616Z,78.88
2018-12-10T00:03:42.083Z,79.01
2018-12-10T00:06:09.628Z,79.72
2018-12-10T00:08:37.122Z,79.17
2018-12-10T00:11:04.631Z,79.69
2018-12-10T00:13:32.095Z,80.16
2018-12-10T00:15:59.584Z,78.97
2018-12-10T00:18:27.106Z,79.71
2018-12-10T00:20:54.567Z,79.47
2018-12-10T00:23:22.085Z,79.09
2018-12-10T00:25:49.543Z,79.12
2018-12-10T00:28:17.028Z,78.63
2018-12-10T00:30:44.489Z,78.92
2018-12-10T00:33:12.031Z,78.35
2018-12-10T00:35:39.602Z,78.17
2018-12-10T00:38:07.163Z,79.05
2018-12-10T00:40:34.747Z,78.23
2018-12-10T00:43:02.191Z,78.92
2018-12-10T00:45:29.670Z,78.24
2018-12-10T00:47:57.155Z,78.58
2018-12-10T00:50:24.765Z,77.68
2018-12-10T00:52:52.265Z,77.81
2018-12-10T00:55:19.760Z,77.23
2018-12-10T00:57:47.267Z,77.32
2018-12-10T01:00:14.784Z,77.63
2018-12-10T01:02:42.258Z,77.48
2018-12-10T01:05:09.768Z,76.49
2018-12-10T01:07:37.247Z,77.42
2018-12-10T01:10:04.937Z,76.83
2018-12-10T01:12:32.394Z,77.00
2018-12-10T01:14:59.914Z,77.12
2018-12-10T01:17:27.383Z,77.40
2018-12-10T01:19:54.898Z,77.05
2018-12-10T01:22:22.451Z,77.32
2018-12-10T01:24:50.020Z,77.65
2018-12-10T01:27:17.537Z,77.30
2018-12-10T01:29:44.995Z,78.00
2018-12-10T01:32:12.434Z,78.11
2018-12-10T01:34:39.892Z,77.91
2018-12-10T01:37:07.332Z,78.55
2018-12-10T01:39:34.860Z,78.64
2018-12-10T01:42:02.316Z,78.29
2018-12-10T01:44:29.774Z,78.77
2018-12-10T01:46:57.245Z,78.56
2018-12-10T01:49:24.719Z,79.46
2018-12-10T01:51:52.285Z,79.50
2018-12-10T01:54:19.744Z,79.23
2018-12-10T01:56:47.265Z,79.44
2018-12-10T01:59:14.735Z,79.48
2018-12-10T02:01:42.259Z,79.35
2018-12-10T02:04:09.714Z,79.40
2018-12-10T02:06:37.178Z,79.49
2018-12-10T02:09:05.760Z,79.94
2018-12-10T02:11:33.321Z,79.23
2018-12-10T02:14:00.788Z,79.65
2018-12-10T02:16:28.267Z,79.57
2018-12-10T02:18:55.809Z,79.65
2018-12-10T02:21:23.294Z,80.06
2018-12-10T02:23:50.782Z,80.55
2018-12-10T02:26:18.255Z,79.88
2018-12-10T02:28:51.462Z,79.68
2018-12-10T02:31:18.965Z,79.87
2018-12-10T02:33:46.469Z,79.80
2018-12-10T02:36:14.108Z,79.79
2018-12-10T02:38:41.561Z,79.51
2018-12-10T02:41:09.052Z,79.13
2018-12-10T02:43:36.550Z,79.85
2018-12-10T02:46:04.030Z,79.83
2018-12-10T02:48:31.509Z,79.33
2018-12-10T02:50:58.986Z,79.94
2018-12-10T02:53:26.484Z,79.29
2018-12-10T02:55:53.964Z,79.96
2018-12-10T02:58:21.460Z,79.71
2018-12-10T03:00:48.952Z,79.24
2018-12-10T03:03:16.443Z,80.16
2018-12-10T03:05:43.983Z,79.92
2018-12-10T03:08:11.455Z,79.86
2018-12-10T03:10:38.953Z,80.09
2018-12-10T03:13:06.502Z,79.86
2018-12-10T03:15:33.982Z,79.61
2018-12-10T03:18:01.515Z,78.95
2018-12-10T03:20:29.069Z,79.58
2018-12-10T03:22:56.593Z,79.18
2018-12-10T03:25:24.088Z,78.85
2018-12-10T03:27:51.624Z,79.09
2018-12-10T03:30:19.119Z,79.48
2018-12-10T03:32:46.621Z,79.27
2018-12-10T03:35:14.080Z,78.64
2018-12-10T03:37:41.553Z,78.50
2018-12-10T03:40:09.092Z,78.25
2018-12-10T03:42:36.869Z,78.09
2018-12-10T03:45:05.243Z,77.28
2018-12-10T03:47:32.751Z,77.56
2018-12-10T03:50:00.231Z,77.21
2018-12-10T03:52:27.727Z,77.69
2018-12-10T03:54:55.237Z,77.82
2018-12-10T03:57:22.718Z,77.61
2018-12-10T03:59:50.268Z,77.70
2018-12-10T04:02:17.766Z,77.50
2018-12-10T04:04:45.252Z,77.35
2018-12-10T04:07:12.700Z,77.63
2018-12-10T04:09:40.162Z,77.49
2018-12-10T04:12:07.647Z,77.73
2018-12-10T04:14:35.122Z,77.80
2018-12-10T04:17:02.678Z,78.00
2018-12-10T04:19:30.130Z,77.93
2018-12-10T04:21:57.626Z,77.63
2018-12-10T04:24:25.124Z,77.73
2018-12-10T04:26:52.818Z,77.38
2018-12-10T04:29:20.329Z,77.28
2018-12-10T04:31:47.780Z,77.62
2018-12-10T04:34:15.262Z,78.08
2018-12-10T04:36:42.739Z,77.74
2018-12-10T04:39:10.225Z,77.54
2018-12-10T04:41:37.700Z,78.04
2018-12-10T04:44:05.176Z,77.47
2018-12-10T04:46:32.695Z,77.27
2018-12-10T04:49:00.224Z,77.48
2018-12-10T04:51:27.716Z,77.84
2018-12-10T04:53:55.226Z,77.22
2018-12-10T04:56:22.723Z,77.25
2018-12-10T04:58:50.203Z,77.68
2018-12-10T05:01:17.660Z,77.63
2018-12-10T05:03:45.168Z,77.47
2018-12-10T05:06:12.623Z,77.21
2018-12-10T05:08:40.152Z,77.53
2018-12-10T05:11:07.644Z,77.35
2018-12-10T05:13:35.120Z,77.28
2018-12-10T05:16:02.657Z,77.28
2018-12-10T05:18:30.202Z,77.66
2018-12-10T05:20:57.676Z,77.20
2018-12-10T05:23:25.188Z,77.25
2018-12-10T05:25:52.784Z,76.68
2018-12-10T05:30:54.046Z,76.83
2018-12-10T05:33:21.511Z,76.90
2018-12-10T05:35:49.047Z,76.27
2018-12-10T05:38:16.610Z,77.24
2018-12-10T05:40:44.152Z,77.11
2018-12-10T05:43:11.645Z,76.64
2018-12-10T05:45:39.118Z,76.21
2018-12-10T05:48:06.590Z,76.14
2018-12-10T05:50:34.078Z,76.10
2018-12-10T05:53:01.577Z,76.49
2018-12-10T05:55:29.049Z,76.33
2018-12-10T05:57:56.536Z,76.07
2018-12-10T06:00:24.118Z,75.91
2018-12-10T06:02:51.575Z,76.34
2018-12-10T06:05:19.135Z,76.64
2018-12-10T06:07:46.616Z,76.38
2018-12-10T06:10:14.275Z,76.92
2018-12-10T06:12:41.868Z,76.97
2018-12-10T06:15:09.558Z,76.22
2018-12-10T06:17:37.035Z,76.88
2018-12-10T06:20:05.252Z,76.44
2018-12-10T06:22:32.736Z,76.71
2018-12-10T06:25:00.314Z,76.07
2018-12-10T06:27:27.817Z,76.77
2018-12-10T06:29:55.303Z,77.15
2018-12-10T06:32:22.788Z,77.16
2018-12-10T06:34:50.298Z,77.04
2018-12-10T06:37:17.748Z,76.60
2018-12-10T06:39:45.210Z,77.28
2018-12-10T06:42:12.686Z,78.07
2018-12-10T06:44:40.130Z,77.90
2018-12-10T06:47:07.658Z,78.01
2018-12-10T06:49:35.118Z,77.90
2018-12-10T06:52:02.620Z,77.77
2018-12-10T06:54:30.091Z,77.61
2018-12-10T06:56:57.553Z,78.35
2018-12-10T06:59:25.064Z,77.85
2018-12-10T07:01:52.571Z,77.81
2018-12-10T07:04:20.040Z,77.89
2018-12-10T07:06:47.559Z,77.97
2018-12-10T07:09:15.046Z,77.59
2018-12-10T07:11:42.531Z,77.09
2018-12-10T07:14:10.026Z,77.50
2018-12-10T07:16:37.584Z,77.89
2018-12-10T07:19:05.079Z,78.11
2018-12-10T07:21:32.608Z,78.22
2018-12-10T07:24:00.064Z,77.95
2018-12-10T07:26:27.570Z,78.23
2018-12-10T07:28:55.044Z,78.05
2018-12-10T07:31:22.624Z,77.87
2018-12-10T07:33:50.095Z,78.46
2018-12-10T07:36:17.619Z,78.01
2018-12-10T07:38:45.191Z,78.74
2018-12-10T07:41:12.669Z,78.57
2018-12-10T07:43:40.203Z,78.18
2018-12-10T07:46:07.685Z,77.90
2018-12-10T07:48:35.187Z,78.45
2018-12-10T07:51:02.675Z,78.26
2018-12-10T07:53:30.197Z,78.03
2018-12-10T07:55:57.651Z,77.97
2018-12-10T07:58:25.114Z,77.89
2018-12-10T08:00:52.609Z,77.46
2018-12-10T08:03:20.073Z,77.70
2018-12-10T08:05:47.551Z,77.63
2018-12-10T08:08:15.039Z,77.49
2018-12-10T08:10:42.539Z,77.51
2018-12-10T08:13:10.053Z,77.50
2018-12-10T08:15:37.659Z,77.85
2018-12-10T08:18:05.406Z,77.22
2018-12-10T08:20:32.955Z,76.80
2018-12-10T08:23:00.479Z,76.25
2018-12-10T08:25:27.963Z,76.63
2018-12-10T08:27:55.526Z,76.53
2018-12-10T08:30:23.048Z,77.19
2018-12-10T08:32:50.533Z,77.12
2018-12-10T08:35:18.030Z,76.67
2018-12-10T08:37:45.628Z,77.44
2018-12-10T08:40:13.141Z,76.90
2018-12-10T08:42:40.740Z,76.94
2018-12-10T08:45:08.353Z,76.85
2018-12-10T08:47:39.851Z,76.32
2018-12-10T08:50:08.136Z,77.08
2018-12-10T08:52:35.620Z,75.80
2018-12-10T08:55:03.976Z,76.50
2018-12-10T08:57:31.504Z,76.19
2018-12-10T08:59:59.069Z,76.62
2018-12-10T09:02:26.549Z,76.41
2018-12-10T09:04:54.393Z,75.76
2018-12-10T09:07:21.940Z,75.61
2018-12-10T09:09:49.440Z,75.63
2018-12-10T09:12:16.907Z,75.39
2018-12-10T09:14:44.427Z,75.91
2018-12-10T09:17:11.971Z,75.44
2018-12-10T09:19:39.518Z,75.34
2018-12-10T09:22:07.099Z,75.61
2018-12-10T09:24:34.591Z,75.57
2018-12-10T09:27:02.087Z,76.08
2018-12-10T09:29:29.746Z,75.43
2018-12-10T09:31:57.402Z,75.53
2018-12-10T09:34:24.869Z,75.27
2018-12-10T09:36:52.388Z,74.14
2018-12-10T09:39:19.890Z,74.29
2018-12-10T09:41:47.602Z,73.74
2018-12-10T09:44:15.090Z,74.57
2018-12-10T09:46:42.672Z,74.54
2018-12-10T09:49:10.247Z,73.76
2018-12-10T09:51:37.734Z,73.41
2018-12-10T09:54:05.248Z,72.84
2018-12-10T09:56:33.343Z,73.37
2018-12-10T09:59:00.930Z,73.00
2018-12-10T10:01:28.435Z,71.83
2018-12-10T10:03:55.952Z,72.12
2018-12-10T10:06:23.484Z,72.12
2018-12-10T10:08:50.955Z,71.83
2018-12-10T10:11:18.502Z,72.29
2018-12-10T10:13:46.040Z,72.94
2018-12-10T10:16:13.527Z,72.32
2018-12-10T10:18:41.034Z,72.34
2018-12-10T10:21:11.528Z,72.69
2018-12-10T10:23:38.070Z,72.76
2018-12-10T10:26:05.632Z,72.59
2018-12-10T10:28:33.181Z,72.91
2018-12-10T10:31:00.770Z,72.73
2018-12-10T10:33:32.278Z,73.04
2018-12-10T10:35:57.798Z,72.57
2018-12-10T10:38:25.387Z,72.22
2018-12-10T10:43:26.686Z,71.69
2018-12-10T10:45:54.199Z,71.89
2018-12-10T10:48:21.735Z,71.55
2018-12-10T10:50:49.342Z,70.94
2018-12-10T10:53:16.839Z,70.34
2018-12-10T10:55:44.321Z,72.08
2018-12-10T10:58:11.849Z,70.98
2018-12-10T11:00:45.156Z,70.99
2018-12-10T11:03:18.280Z,70.38
2018-12-10T11:05:45.755Z,70.61
2018-12-10T11:08:13.227Z,70.86
2018-12-10T11:10:40.733Z,70.33
2018-12-10T11:13:08.261Z,70.71
2018-12-10T11:15:35.749Z,71.06
2018-12-10T11:18:03.349Z,70.83
2018-12-10T11:20:30.894Z,71.02
2018-12-10T11:22:58.474Z,70.86
2018-12-10T11:25:25.960Z,71.35
2018-12-10T11:27:53.462Z,70.67
2018-12-10T11:30:20.953Z,71.00
2018-12-10T11:32:48.452Z,70.44
2018-12-10T11:35:15.930Z,70.33
2018-12-10T11:37:43.414Z,70.69
2018-12-10T11:40:10.939Z,70.27
2018-12-10T11:42:38.491Z,70.43
2018-12-10T11:45:06.299Z,70.34
2018-12-10T11:47:33.802Z,70.45
2018-12-10T11:50:01.333Z,70.74
2018-12-10T11:52:28.839Z,70.84
2018-12-10T11:54:56.294Z,70.25
2018-12-10T11:57:23.807Z,70.69
2018-12-10T11:59:51.281Z,70.60
2018-12-10T12:02:18.858Z,70.31
2018-12-10T12:04:46.302Z,70.11
2018-12-10T12:07:13.872Z,70.77
2018-12-10T12:09:41.342Z,71.00
2018-12-10T12:12:13.075Z,70.76
2018-12-10T12:14:40.633Z,71.22
2018-12-10T12:17:08.094Z,70.24
2018-12-10T12:19:35.618Z,70.73
2018-12-10T12:22:05.167Z,70.23
2018-12-10T12:24:32.698Z,70.33
2018-12-10T12:27:00.252Z,70.45
2018-12-10T12:29:27.743Z,70.12
2018-12-10T12:31:55.294Z,70.06
2018-12-10T12:34:22.898Z,70.14
2018-12-10T12:36:50.403Z,70.27
2018-12-10T12:39:17.960Z,69.91
2018-12-10T12:41:45.432Z,70.46
2018-12-10T12:44:12.927Z,69.79
2018-12-10T12:46:40.399Z,69.99
2018-12-10T12:49:07.890Z,70.56
2018-12-10T12:51:35.440Z,70.79
2018-12-10T12:54:02.914Z,71.15
2018-12-10T12:56:30.637Z,71.22
2018-12-10T12:58:58.138Z,70.96
2018-12-10T13:01:25.600Z,72.54
2018-12-10T13:03:53.394Z,74.74
2018-12-10T13:06:20.871Z,79.62
2018-12-10T13:08:48.462Z,82.51
2018-12-10T13:11:16.215Z,82.54
2018-12-10T13:13:43.681Z,82.50
2018-12-10T13:16:11.149Z,81.60
2018-12-10T13:18:38.722Z,80.66
2018-12-10T13:21:06.202Z,78.57
2018-12-10T13:23:33.747Z,77.77
2018-12-10T13:26:01.259Z,76.64
2018-12-10T13:28:28.719Z,76.15
2018-12-10T13:30:56.257Z,75.63
2018-12-10T13:33:23.741Z,74.83
2018-12-10T13:35:51.306Z,74.85
2018-12-10T13:38:18.799Z,75.33
2018-12-10T13:40:46.246Z,74.74
2018-12-10T13:43:13.709Z,75.59
2018-12-10T13:45:41.259Z,75.05
2018-12-10T13:48:08.762Z,74.83
2018-12-10T13:50:36.260Z,75.18
2018-12-10T13:53:03.715Z,74.98
2018-12-10T13:55:31.180Z,74.86
2018-12-10T13:57:58.752Z,74.42
2018-12-10T14:00:26.270Z,74.40
2018-12-10T14:02:53.745Z,73.84
2018-12-10T14:05:21.230Z,74.11
2018-12-10T14:07:48.728Z,73.31
2018-12-10T14:10:16.199Z,73.36
2018-12-10T14:12:43.739Z,74.06
2018-12-10T14:15:11.320Z,74.04
2018-12-10T14:17:38.818Z,73.70
2018-12-10T14:20:06.431Z,73.69
2018-12-10T14:22:34.017Z,73.39
2018-12-10T14:25:01.544Z,74.09
2018-12-10T14:27:29.080Z,73.24
2018-12-10T14:29:56.665Z,73.70
2018-12-10T14:32:24.181Z,73.05
2018-12-10T14:34:51.730Z,73.35
2018-12-10T14:37:19.258Z,73.52
2018-12-10T14:39:46.731Z,72.79
2018-12-10T14:42:21.254Z,73.36
2018-12-10T14:44:48.854Z,73.08
2018-12-10T14:47:16.342Z,72.98
2018-12-10T14:49:43.807Z,73.36
2018-12-10T14:52:11.327Z,73.27
2018-12-10T14:54:38.790Z,73.37
2018-12-10T14:57:06.346Z,72.69
2018-12-10T14:59:34.009Z,72.87
2018-12-10T15:02:01.570Z,73.20
2018-12-10T15:04:29.167Z,74.04
2018-12-10T15:06:56.715Z,73.88
2018-12-10T15:09:24.223Z,74.58
2018-12-10T15:11:51.728Z,74.86
2018-12-10T15:14:19.264Z,75.81
2018-12-10T15:16:46.788Z,76.86
2018-12-10T15:19:14.301Z,77.25
2018-12-10T15:21:41.793Z,77.11
2018-12-10T15:24:09.260Z,77.86
2018-12-10T15:26:36.771Z,77.58
2018-12-10T15:29:04.294Z,77.09
2018-12-10T15:31:31.792Z,77.49
2018-12-10T15:33:59.285Z,76.46
2018-12-10T15:36:26.777Z,76.37
2018-12-10T15:38:54.258Z,76.76
2018-12-10T15:41:21.840Z,76.19
2018-12-10T15:43:49.318Z,75.96
2018-12-10T15:46:16.793Z,75.77
2018-12-10T15:48:44.329Z,76.43
2018-12-10T15:51:11.871Z,76.46
2018-12-10T15:53:39.329Z,76.37
2018-12-10T15:56:06.835Z,76.47
2018-12-10T15:58:34.296Z,77.24
2018-12-10T16:01:01.804Z,77.02
2018-12-10T16:03:29.375Z,77.20
2018-12-10T16:05:57.002Z,77.21
2018-12-10T16:08:24.528Z,77.36
2018-12-10T16:10:52.079Z,76.72
2018-12-10T16:13:19.631Z,76.88
2018-12-10T16:15:47.141Z,76.73
2018-12-10T16:18:14.632Z,77.32
2018-12-10T16:20:42.338Z,77.45
2018-12-10T16:23:09.835Z,77.00
2018-12-10T16:25:37.359Z,77.49
2018-12-10T16:28:04.874Z,77.54
2018-12-10T16:30:32.794Z,77.59
2018-12-10T16:33:00.541Z,77.69
2018-12-10T16:35:28.004Z,77.97
2018-12-10T16:37:55.485Z,77.57
2018-12-10T16:40:22.995Z,77.94
2018-12-10T16:42:50.486Z,78.08
2018-12-10T16:45:18.004Z,78.63
2018-12-10T16:47:45.537Z,78.28
2018-12-10T16:50:13.041Z,78.37
2018-12-10T16:52:40.519Z,77.97
2018-12-10T16:55:08.112Z,78.28
2018-12-10T16:57:35.700Z,79.02
2018-12-10T17:00:06.292Z,79.17
2018-12-10T17:02:35.162Z,81.52
2018-12-10T17:05:04.767Z,81.16
2018-12-10T17:07:32.233Z,82.05
2018-12-10T17:09:59.736Z,83.12
2018-12-10T17:12:27.223Z,84.38
2018-12-10T17:14:54.706Z,84.05
2018-12-10T17:17:22.239Z,84.59
2018-12-10T17:19:49.724Z,84.54
2018-12-10T17:22:17.241Z,85.05
2018-12-10T17:24:44.741Z,84.42
2018-12-10T17:27:12.309Z,83.43
2018-12-10T17:29:39.783Z,83.67
2018-12-10T17:32:07.243Z,84.10
2018-12-10T17:34:34.889Z,82.85
2018-12-10T17:37:02.413Z,83.24
2018-12-10T17:39:29.943Z,82.65
2018-12-10T17:41:57.430Z,83.12
2018-12-10T17:44:24.934Z,82.69
2018-12-10T17:46:52.447Z,82.92
2018-12-10T17:49:20.965Z,82.83
2018-12-10T17:51:48.452Z,83.11
2018-12-10T17:54:15.953Z,84.33
2018-12-10T17:56:43.479Z,86.34
2018-12-10T17:59:11.153Z,86.23
2018-12-10T18:01:38.658Z,86.95
2018-12-10T18:04:06.174Z,86.34
2018-12-10T18:06:33.671Z,86.70
2018-12-10T18:09:01.189Z,85.60
2018-12-10T18:11:28.666Z,85.77
2018-12-10T18:13:56.209Z,85.80
2018-12-10T18:16:23.709Z,85.57
2018-12-10T18:18:51.271Z,85.58
2018-12-10T18:21:18.775Z,85.29
2018-12-10T18:23:46.353Z,84.53
2018-12-10T18:26:13.807Z,84.02
2018-12-10T18:28:41.259Z,84.24
2018-12-10T18:31:08.785Z,84.53
2018-12-10T18:33:36.422Z,83.91
2018-12-10T18:36:03.995Z,84.28
2018-12-10T18:38:31.464Z,84.28
2018-12-10T18:40:58.965Z,84.74
2018-12-10T18:43:26.435Z,84.47
2018-12-10T18:45:54.018Z,83.87
2018-12-10T18:48:21.557Z,83.71
2018-12-10T18:50:49.032Z,84.56
2018-12-10T18:53:16.507Z,84.54
2018-12-10T18:55:44.011Z,83.58
2018-12-10T18:58:11.456Z,83.03
2018-12-10T19:00:38.978Z,83.72
2018-12-10T19:03:06.469Z,83.53
2018-12-10T19:05:33.939Z,83.33
2018-12-10T19:08:01.437Z,82.91
2018-12-10T19:10:29.041Z,82.92
2018-12-10T19:12:56.547Z,83.70
2018-12-10T19:15:24.061Z,83.38
2018-12-10T19:17:51.626Z,83.52
2018-12-10T19:20:19.108Z,83.31
2018-12-10T19:22:46.605Z,83.46
2018-12-10T19:25:14.100Z,84.08
2018-12-10T19:27:41.569Z,84.71
2018-12-10T19:30:09.113Z,84.83
2018-12-10T19:32:36.675Z,84.90
2018-12-10T19:35:04.703Z,85.96
2018-12-10T19:37:32.198Z,85.34
2018-12-10T19:39:59.756Z,85.45
2018-12-10T19:42:27.237Z,85.02
2018-12-10T19:44:54.727Z,84.25
2018-12-10T19:47:22.250Z,85.06
2018-12-10T19:49:49.749Z,84.14
2018-12-10T19:52:17.317Z,85.08
2018-12-10T19:54:44.907Z,85.49
2018-12-10T19:57:12.683Z,85.57
2018-12-10T19:59:40.219Z,84.51
2018-12-10T20:02:08.104Z,85.17
2018-12-10T20:04:35.627Z,85.28
2018-12-10T20:07:06.511Z,85.18
2018-12-10T20:09:34.759Z,86.10
2018-12-10T20:12:03.213Z,86.73
2018-12-10T20:14:30.721Z,86.63
2018-12-10T20:16:58.320Z,86.66
2018-12-10T20:19:25.866Z,87.53
2018-12-10T20:21:53.401Z,87.19
2018-12-10T20:24:20.984Z,86.81
2018-12-10T20:26:48.477Z,86.98
2018-12-10T20:29:16.004Z,87.45
2018-12-10T20:31:43.629Z,87.50
2018-12-10T20:34:11.702Z,88.04
2018-12-10T20:36:39.235Z,87.54
2018-12-10T20:39:07.158Z,88.25
2018-12-10T20:41:34.670Z,87.21
2018-12-10T20:44:02.447Z,87.08
2018-12-10T20:46:29.953Z,86.84
2018-12-10T20:48:57.478Z,87.16
2018-12-10T20:51:24.948Z,86.36
2018-12-10T20:53:52.464Z,86.81
2018-12-10T20:56:19.971Z,86.73
2018-12-10T20:58:47.468Z,86.96
2018-12-10T21:01:14.946Z,85.94
2018-12-10T21:03:42.479Z,86.69
2018-12-10T21:06:15.628Z,85.92
2018-12-10T21:08:43.204Z,85.87
2018-12-10T21:11:11.602Z,86.33
2018-12-10T21:13:39.151Z,86.15
2018-12-10T21:16:08.318Z,85.67
2018-12-10T21:18:35.814Z,86.00
2018-12-10T21:21:03.579Z,86.16
2018-12-10T21:23:31.099Z,85.47
2018-12-10T21:25:59.049Z,85.48
2018-12-10T21:28:26.529Z,86.34
2018-12-10T21:30:53.998Z,85.32
2018-12-10T21:33:22.361Z,85.88
2018-12-10T21:35:49.901Z,85.81
2018-12-10T21:38:17.809Z,85.44
2018-12-10T21:40:45.287Z,86.05
2018-12-10T21:43:12.760Z,86.20
2018-12-10T21:45:40.307Z,85.86
2018-12-10T21:48:07.818Z,86.05
2018-12-10T21:50:35.319Z,86.09
2018-12-10T21:53:02.882Z,85.65
2018-12-10T21:55:30.356Z,85.89
2018-12-10T21:57:57.898Z,85.65
2018-12-10T22:00:26.224Z,85.57
2018-12-10T22:02:53.704Z,86.14
2018-12-10T22:05:21.218Z,86.63
2018-12-10T22:07:48.755Z,87.11
2018-12-10T22:10:16.280Z,86.68
2018-12-10T22:12:43.744Z,87.12
2018-12-10T22:15:11.274Z,87.19
2018-12-10T22:17:38.771Z,86.04
2018-12-10T22:20:06.501Z,86.30
2018-12-10T22:22:33.978Z,86.19
2018-12-10T22:25:02.639Z,86.92
2018-12-10T22:27:30.252Z,87.02
2018-12-10T22:29:57.704Z,86.50
2018-12-10T22:32:25.167Z,86.34
2018-12-10T22:34:52.686Z,85.86
2018-12-10T22:37:20.162Z,85.84
2018-12-10T22:39:47.634Z,85.45
2018-12-10T22:42:15.173Z,85.49
2018-12-10T22:44:43.326Z,86.11
2018-12-10T22:47:10.942Z,86.00
2018-12-10T22:49:38.475Z,85.78
2018-12-10T22:52:06.011Z,86.26
2018-12-10T22:54:33.603Z,85.96
2018-12-10T22:57:01.083Z,84.71
2018-12-10T22:59:28.560Z,85.66
2018-12-10T23:01:56.052Z,84.95
2018-12-10T23:04:23.506Z,85.27
2018-12-10T23:06:50.986Z,84.81
2018-12-10T23:09:18.448Z,84.53
2018-12-10T23:11:45.899Z,85.06
2018-12-10T23:14:13.359Z,85.08
2018-12-10T23:16:40.836Z,84.37
2018-12-10T23:19:08.557Z,84.77
2018-12-10T23:21:36.065Z,84.52
2018-12-10T23:24:03.679Z,83.81
2018-12-10T23:26:31.163Z,84.03
2018-12-10T23:28:58.614Z,84.80
2018-12-10T23:31:26.106Z,84.43
2018-12-10T23:33:53.603Z,84.33
2018-12-10T23:36:21.089Z,84.58
2018-12-10T23:38:48.569Z,84.35
2018-12-10T23:41:16.102Z,84.14
2018-12-10T23:43:43.559Z,84.49
2018-12-10T23:46:11.026Z,83.73
2018-12-10T23:48:38.549Z,84.00
2018-12-10T23:51:06.083Z,84.05
2018-12-10T23:53:33.524Z,83.98
2018-12-10T23:56:01.369Z,83.30
2018-12-10T23:58:29.171Z,83.34
